Terminal Aerodrome Forecast
Issued by NWS

Home | Current Version | Previous Version | Text Only | Print | Product List | Glossary Off
Versions: 1 2 3 4 5 6 7 8 9 10 11 12 13 14 15 16 17 18 19 20

172
FTUS43 KGRB 010825 AAA
TAFCWA
TAF AMD
KCWA 010825Z 0108/0206 06008KT P6SM VCSH SCT045 BKN070
      WS018/08030KT
     FM011200 05009G15KT P6SM BKN040 BKN090
     FM011800 04010G15KT P6SM SCT040 BKN100
     FM012200 07007KT P6SM SCT100=

USA.gov is the U.S. government's official web portal to all federal, state and local government web resources and services.